Time;durP1;ratioP1;P1;durP2;ratioP2;P2;SDS_P1;SDS_P2;PMS_P1;PMS_P2;Temp;Humidity;BMP_temperature;BMP_pressure;BME280_temperature;BME280_humidity;BME280_pressure;Samples;Min_cycle;Max_cycle;Signal;HPM_P1;HPM_P2
2021/10/11 00:01:11;;;;;;;81.13;53.60;;;;;;;9.80;100.00;101125.22;5050989;28;20095;-67
2021/10/11 00:03:38;;;;;;;80.40;53.28;;;;;;;9.79;100.00;101126.16;5035862;28;20129;-67
2021/10/11 00:06:04;;;;;;;90.75;56.10;;;;;;;9.80;100.00;101124.34;5050966;28;20049;-68
2021/10/11 00:08:31;;;;;;;81.38;53.17;;;;;;;9.78;100.00;101119.09;5044528;28;20091;-69
2021/10/11 00:10:58;;;;;;;88.20;55.33;;;;;;;9.86;100.00;101116.94;5018129;28;20045;-68
2021/10/11 00:13:25;;;;;;;86.18;56.47;;;;;;;9.98;100.00;101114.69;5051972;28;20041;-67
2021/10/11 00:15:51;;;;;;;83.95;53.75;;;;;;;10.05;100.00;101116.16;5054367;28;20048;-68
2021/10/11 00:18:18;;;;;;;88.00;56.72;;;;;;;10.07;100.00;101106.28;5055493;28;20086;-69
2021/10/11 00:20:45;;;;;;;86.63;56.20;;;;;;;10.11;100.00;101115.03;5055328;28;20052;-67
2021/10/11 00:23:12;;;;;;;90.13;57.03;;;;;;;10.13;100.00;101105.16;5055325;28;20435;-68
2021/10/11 00:25:39;;;;;;;88.40;56.00;;;;;;;10.16;100.00;101116.56;5038890;28;20438;-67
2021/10/11 00:28:06;;;;;;;89.85;55.80;;;;;;;10.20;100.00;101127.97;5035436;28;20041;-68
2021/10/11 00:30:34;;;;;;;86.15;57.20;;;;;;;10.27;100.00;101118.75;5035165;28;20133;-68
2021/10/11 00:33:02;;;;;;;93.18;59.10;;;;;;;10.40;100.00;101121.75;5035249;28;20045;-68
2021/10/11 00:35:28;;;;;;;89.43;57.15;;;;;;;10.37;100.00;101116.56;5035246;28;20045;-68
2021/10/11 00:37:55;;;;;;;95.00;59.72;;;;;;;10.38;100.00;101120.94;5034272;28;20045;-68
2021/10/11 00:40:22;;;;;;;98.32;60.67;;;;;;;10.45;100.00;101130.44;5034125;28;20053;-69
2021/10/11 00:42:52;;;;;;;99.43;61.55;;;;;;;10.51;100.00;101120.44;5033684;28;20060;-67
2021/10/11 00:45:18;;;;;;;94.55;61.40;;;;;;;10.50;100.00;101114.22;5035383;28;20103;-67
2021/10/11 00:47:46;;;;;;;95.47;60.88;;;;;;;10.52;100.00;101116.81;5035244;28;20442;-68
2021/10/11 00:50:12;;;;;;;95.60;60.47;;;;;;;10.61;100.00;101126.22;5034372;28;20049;-69
2021/10/11 00:52:39;;;;;;;92.22;58.78;;;;;;;10.57;100.00;101123.69;5035023;28;20045;-68
2021/10/11 00:55:07;;;;;;;95.07;62.00;;;;;;;10.59;100.00;101107.59;5033900;28;20076;-67
2021/10/11 00:57:33;;;;;;;101.50;64.20;;;;;;;10.58;100.00;101111.22;5034949;28;20094;-68
2021/10/11 01:00:00;;;;;;;104.07;64.95;;;;;;;10.51;100.00;101115.09;5034741;28;20056;-68
2021/10/11 01:02:27;;;;;;;107.05;67.45;;;;;;;10.46;100.00;101124.16;5034914;28;20343;-69
2021/10/11 01:04:54;;;;;;;108.90;66.35;;;;;;;10.39;100.00;101133.34;5033721;28;20041;-69
2021/10/11 01:07:21;;;;;;;109.20;69.63;;;;;;;10.36;100.00;101127.28;5032905;28;20053;-69
2021/10/11 01:09:48;;;;;;;107.10;68.72;;;;;;;10.30;100.00;101128.44;5034762;28;20034;-68
2021/10/11 01:12:15;;;;;;;115.25;69.40;;;;;;;10.28;100.00;101131.16;5033575;28;20081;-69
2021/10/11 01:14:42;;;;;;;116.22;70.15;;;;;;;10.31;100.00;101132.84;5033724;28;20438;-68
2021/10/11 01:17:09;;;;;;;114.88;70.20;;;;;;;10.29;100.00;101126.69;5034648;28;20049;-69
2021/10/11 01:19:37;;;;;;;112.63;67.43;;;;;;;10.27;100.00;101121.44;5034819;28;20100;-68
2021/10/11 01:22:04;;;;;;;118.10;72.25;;;;;;;10.17;100.00;101104.09;5034620;28;20056;-68
2021/10/11 01:24:31;;;;;;;119.03;71.93;;;;;;;10.26;100.00;101125.03;5013831;28;20046;-68
2021/10/11 01:26:58;;;;;;;119.55;73.38;;;;;;;10.21;100.00;101119.03;5014938;28;20413;-68
2021/10/11 01:29:25;;;;;;;130.10;75.03;;;;;;;10.25;100.00;101119.75;5014825;28;20042;-68
2021/10/11 01:31:51;;;;;;;131.73;75.63;;;;;;;10.19;100.00;101119.09;5014648;28;20451;-70
2021/10/11 01:34:18;;;;;;;128.35;77.53;;;;;;;10.21;100.00;101123.50;5014907;28;20050;-69
2021/10/11 01:36:45;;;;;;;127.90;76.18;;;;;;;10.25;100.00;101114.44;5014791;28;20037;-68
2021/10/11 01:39:12;;;;;;;128.45;77.38;;;;;;;10.13;100.00;101098.00;5013815;28;20080;-69
2021/10/11 01:41:39;;;;;;;135.68;76.75;;;;;;;10.21;100.00;101112.81;5013542;28;20101;-69
2021/10/11 01:44:06;;;;;;;131.95;75.53;;;;;;;10.25;100.00;101119.75;5014901;28;20046;-70
2021/10/11 01:46:33;;;;;;;127.03;72.95;;;;;;;10.26;100.00;101111.69;5014633;28;20045;-69
2021/10/11 01:49:00;;;;;;;122.63;74.28;;;;;;;10.25;100.00;101104.59;5014861;28;20344;-68
2021/10/11 01:51:27;;;;;;;131.27;74.10;;;;;;;10.28;100.00;101111.59;5014626;28;20042;-68
2021/10/11 01:53:54;;;;;;;124.25;74.50;;;;;;;10.22;100.00;101099.41;5016364;28;20053;-68
2021/10/11 01:56:21;;;;;;;133.60;73.75;;;;;;;10.30;100.00;101107.09;5018372;28;20459;-69
2021/10/11 01:58:48;;;;;;;127.50;72.35;;;;;;;10.28;100.00;101108.94;5018178;28;20061;-70
2021/10/11 02:01:15;;;;;;;139.75;71.70;;;;;;;10.28;100.00;101107.16;5018605;28;20049;-70
2021/10/11 02:03:42;;;;;;;128.20;75.20;;;;;;;10.29;100.00;101106.22;5017216;28;20129;-70
2021/10/11 02:06:09;;;;;;;133.07;71.90;;;;;;;10.32;100.00;101105.22;5018041;28;20439;-69
2021/10/11 02:08:36;;;;;;;128.07;72.00;;;;;;;10.33;100.00;101104.28;5017195;28;20034;-69
2021/10/11 02:11:03;;;;;;;138.02;72.80;;;;;;;10.40;100.00;101107.53;5017948;28;20089;-71
2021/10/11 02:13:29;;;;;;;128.25;70.90;;;;;;;10.41;100.00;101106.59;5036073;28;20042;-69
2021/10/11 02:15:56;;;;;;;126.13;71.72;;;;;;;10.43;100.00;101107.44;5037638;28;20050;-69
2021/10/11 02:18:23;;;;;;;121.57;71.18;;;;;;;10.43;100.00;101100.28;5037796;28;20049;-69
2021/10/11 02:20:50;;;;;;;135.18;72.72;;;;;;;10.41;100.00;101104.78;5037815;28;20063;-69
2021/10/11 02:23:17;;;;;;;129.40;71.75;;;;;;;10.43;100.00;101110.97;5020238;28;20156;-68
2021/10/11 02:25:44;;;;;;;129.57;71.80;;;;;;;10.43;100.00;101107.44;5037646;28;20064;-69
2021/10/11 02:28:10;;;;;;;119.97;67.65;;;;;;;10.44;100.00;101110.03;5019964;28;20099;-69
2021/10/11 02:30:37;;;;;;;121.28;68.88;;;;;;;10.46;100.00;101105.47;5037650;28;20045;-70
2021/10/11 02:33:04;;;;;;;119.15;66.35;;;;;;;10.47;100.00;101103.69;5036516;28;20370;-69
2021/10/11 02:35:31;;;;;;;130.52;69.07;;;;;;;10.43;100.00;101108.31;5037660;28;20092;-69
2021/10/11 02:37:57;;;;;;;121.97;67.80;;;;;;;10.37;100.00;101099.66;5037465;28;20038;-69
2021/10/11 02:40:24;;;;;;;120.65;67.25;;;;;;;10.39;100.00;101098.66;5037399;28;20122;-68
2021/10/11 02:42:52;;;;;;;119.68;66.88;;;;;;;10.43;100.00;101100.28;5037488;28;20083;-68
2021/10/11 02:45:19;;;;;;;118.00;67.53;;;;;;;10.43;100.00;101097.63;5037370;28;20037;-67
2021/10/11 02:47:46;;;;;;;120.25;65.10;;;;;;;10.33;100.00;101085.59;5036040;28;20438;-69
2021/10/11 02:50:13;;;;;;;119.72;65.95;;;;;;;10.36;100.00;101093.47;5037323;28;20045;-68
2021/10/11 02:52:40;;;;;;;114.72;65.90;;;;;;;10.41;100.00;101094.09;5037236;28;20335;-69
2021/10/11 02:55:07;;;;;;;117.15;65.03;;;;;;;10.43;100.00;101096.75;5035868;28;20397;-69
2021/10/11 02:57:34;;;;;;;112.38;63.20;;;;;;;10.46;100.00;101097.47;5036997;28;20378;-68
2021/10/11 03:00:02;;;;;;;110.30;63.17;;;;;;;10.46;100.00;101102.81;5037013;28;20068;-69
2021/10/11 03:02:29;;;;;;;116.10;63.47;;;;;;;10.48;100.00;101105.41;5036925;28;20045;-68
2021/10/11 03:04:56;;;;;;;110.95;62.55;;;;;;;10.48;100.00;101112.56;5035898;28;20053;-69
2021/10/11 03:07:23;;;;;;;118.20;63.15;;;;;;;10.47;100.00;101114.38;5035749;28;20703;-68
2021/10/11 03:09:50;;;;;;;114.53;63.53;;;;;;;10.49;100.00;101111.59;5036784;28;20048;-70
2021/10/11 03:12:17;;;;;;;119.93;64.85;;;;;;;10.47;100.00;101101.03;5036728;28;20045;-68
2021/10/11 03:14:44;;;;;;;131.25;66.97;;;;;;;10.48;100.00;101104.53;5038138;28;20053;-69
2021/10/11 03:17:12;;;;;;;123.50;65.25;;;;;;;10.52;100.00;101099.00;5039121;28;20075;-69
2021/10/11 03:19:39;;;;;;;124.38;66.35;;;;;;;10.52;100.00;101092.81;5038217;28;20069;-69
2021/10/11 03:22:06;;;;;;;127.72;65.25;;;;;;;10.56;100.00;101097.03;5036906;28;20057;-69
2021/10/11 03:24:33;;;;;;;115.38;63.95;;;;;;;10.53;100.00;101094.53;5036553;28;20041;-69
2021/10/11 03:27:00;;;;;;;119.03;63.33;;;;;;;10.56;100.00;101091.69;5035382;28;20045;-69
2021/10/11 03:29:27;;;;;;;118.10;62.55;;;;;;;10.61;100.00;101100.38;5036480;28;20042;-68
2021/10/11 03:31:55;;;;;;;115.35;62.65;;;;;;;10.61;100.00;101100.38;5051878;28;20053;-69
2021/10/11 03:34:21;;;;;;;128.20;62.40;;;;;;;10.63;100.00;101101.19;5036329;28;20041;-69
2021/10/11 03:36:48;;;;;;;125.55;64.32;;;;;;;10.65;100.00;101098.44;5036232;28;20044;-68
2021/10/11 03:39:15;;;;;;;124.68;64.78;;;;;;;10.62;100.00;101102.09;5036215;28;20049;-71
2021/10/11 03:41:42;;;;;;;130.93;67.03;;;;;;;10.63;100.00;101098.53;5036287;28;20427;-68
2021/10/11 03:44:09;;;;;;;126.93;65.65;;;;;;;10.67;100.00;101102.75;5036300;28;20140;-69
2021/10/11 03:46:36;;;;;;;125.30;65.20;;;;;;;10.66;100.00;101102.81;5034907;28;20053;-68
2021/10/11 03:49:03;;;;;;;134.93;66.75;;;;;;;10.63;100.00;101094.97;5036069;28;20045;-68
2021/10/11 03:51:31;;;;;;;139.63;67.03;;;;;;;10.70;100.00;101110.66;5035129;28;20402;-69
2021/10/11 03:53:58;;;;;;;127.63;64.88;;;;;;;10.69;100.00;101114.22;5035943;28;20051;-69
2021/10/11 03:56:25;;;;;;;125.57;63.92;;;;;;;10.69;100.00;101111.56;5035004;28;20053;-69
2021/10/11 03:58:53;;;;;;;125.90;64.68;;;;;;;10.70;100.00;101107.97;5035818;28;20045;-69
2021/10/11 04:01:20;;;;;;;126.97;62.28;;;;;;;10.70;100.00;101101.75;5036081;28;20046;-69
2021/10/11 04:03:48;;;;;;;131.25;64.70;;;;;;;10.67;100.00;101093.91;5035717;28;20083;-69
2021/10/11 04:06:16;;;;;;;128.15;63.15;;;;;;;10.70;100.00;101099.09;5034503;28;20522;-69
2021/10/11 04:08:46;;;;;;;126.82;60.13;;;;;;;10.73;100.00;101088.25;5018418;28;20111;-68
2021/10/11 04:13:43;;;;;;;120.68;58.00;;;;;;;10.71;100.00;101085.69;5016038;28;20058;-69
2021/10/11 04:16:11;;;;;;;113.60;57.92;;;;;;;10.75;100.00;101089.06;5024637;28;20123;-69
2021/10/11 04:18:39;;;;;;;101.88;51.88;;;;;;;10.76;100.00;101081.91;5035522;28;20437;-69
2021/10/11 04:21:06;;;;;;;93.50;46.10;;;;;;;10.75;100.00;101077.50;5035648;28;20049;-68
2021/10/11 04:23:34;;;;;;;92.38;46.55;;;;;;;10.79;100.00;101087.13;5034394;28;20049;-69
2021/10/11 04:26:01;;;;;;;95.05;45.58;;;;;;;10.79;100.00;101097.78;5035438;28;20045;-69
2021/10/11 04:28:28;;;;;;;67.93;35.33;;;;;;;10.85;100.00;101092.16;5034092;28;20049;-70
2021/10/11 04:30:54;;;;;;;74.80;35.50;;;;;;;10.83;100.00;101105.59;5033486;28;20049;-70
2021/10/11 04:33:23;;;;;;;81.38;41.30;;;;;;;10.81;100.00;101110.16;5035251;28;20050;-70
2021/10/11 04:35:50;;;;;;;81.47;42.70;;;;;;;10.78;100.00;101096.91;5034248;28;20075;-69
2021/10/11 04:38:17;;;;;;;85.95;43.60;;;;;;;10.80;100.00;101100.41;5033958;28;20438;-69
2021/10/11 04:40:44;;;;;;;82.93;41.42;;;;;;;10.83;100.00;101105.59;5034191;28;20061;-68
2021/10/11 04:43:11;;;;;;;77.38;38.45;;;;;;;10.84;100.00;101107.31;5033951;28;20481;-68
2021/10/11 04:45:37;;;;;;;74.93;37.63;;;;;;;10.82;100.00;101103.88;5034265;28;20083;-69
2021/10/11 04:48:07;;;;;;;62.10;29.40;;;;;;;10.89;100.00;101104.41;5034034;28;20041;-69
2021/10/11 04:50:35;;;;;;;62.65;30.67;;;;;;;10.87;100.00;101108.97;5035203;28;20045;-69
2021/10/11 04:53:04;;;;;;;61.20;31.77;;;;;;;10.89;100.00;101103.56;5033999;28;20049;-69
2021/10/11 04:55:32;;;;;;;66.18;33.92;;;;;;;10.86;100.00;101117.94;5034751;28;20046;-68
2021/10/11 04:58:00;;;;;;;65.72;30.25;;;;;;;10.87;100.00;101108.97;5032424;28;20103;-67
2021/10/11 05:00:28;;;;;;;60.45;29.00;;;;;;;10.97;100.00;101115.63;5017850;28;20081;-68
2021/10/11 05:02:56;;;;;;;61.22;28.95;;;;;;;10.95;100.00;101108.63;5030797;28;20058;-69
2021/10/11 05:05:23;;;;;;;58.97;27.60;;;;;;;10.98;100.00;101113.81;5027358;28;20041;-69
2021/10/11 05:07:50;;;;;;;62.25;29.13;;;;;;;10.91;100.00;101107.91;5026595;28;20324;-68
2021/10/11 05:10:17;;;;;;;64.45;29.98;;;;;;;10.96;100.00;101111.19;5028053;28;20045;-72
2021/10/11 05:12:45;;;;;;;66.88;29.77;;;;;;;10.89;100.00;101099.09;5035814;28;20049;-71
2021/10/11 05:15:11;;;;;;;61.38;29.77;;;;;;;10.94;100.00;101107.75;4992473;28;20049;-73
2021/10/11 05:17:41;;;;;;;63.28;29.75;;;;;;;10.95;100.00;101108.63;5036859;28;20041;-69
2021/10/11 05:20:09;;;;;;;64.03;29.85;;;;;;;10.93;100.00;101114.03;5034819;28;20396;-69
2021/10/11 05:22:38;;;;;;;52.25;27.48;;;;;;;10.95;100.00;101124.66;5037464;28;20049;-67
2021/10/11 05:25:06;;;;;;;59.13;28.48;;;;;;;10.93;100.00;101116.72;5047724;28;20419;-66
2021/10/11 05:27:33;;;;;;;52.75;26.95;;;;;;;10.97;100.00;101131.66;5046147;28;20036;-66
2021/10/11 05:30:00;;;;;;;48.78;23.13;;;;;;;10.99;100.00;101132.44;5051619;28;20030;-66
2021/10/11 05:32:28;;;;;;;42.10;21.77;;;;;;;11.00;100.00;101139.50;5039354;28;20091;-66
2021/10/11 05:34:56;;;;;;;46.88;23.20;;;;;;;10.90;100.00;101140.88;5054381;28;20060;-66
2021/10/11 05:37:23;;;;;;;41.88;21.88;;;;;;;10.88;100.00;101144.59;5048606;28;20041;-67
2021/10/11 05:39:50;;;;;;;46.00;21.67;;;;;;;10.84;100.00;101143.84;5055033;28;20460;-67
2021/10/11 05:42:16;;;;;;;44.40;21.05;;;;;;;10.88;100.00;101144.59;5047672;28;20045;-67
2021/10/11 05:44:43;;;;;;;42.20;21.10;;;;;;;10.92;100.00;101147.03;5050146;28;20049;-66
2021/10/11 05:47:11;;;;;;;38.22;19.08;;;;;;;10.88;100.00;101147.25;5039633;28;20052;-65
2021/10/11 05:49:37;;;;;;;38.20;19.17;;;;;;;10.84;100.00;101150.03;5043885;28;20045;-68
2021/10/11 05:52:05;;;;;;;33.00;18.63;;;;;;;10.88;100.00;101145.44;5034983;28;20497;-71
2021/10/11 05:54:32;;;;;;;33.13;18.33;;;;;;;10.89;100.00;101152.50;5045795;28;20037;-71
2021/10/11 05:56:58;;;;;;;39.38;17.88;;;;;;;10.84;100.00;101157.22;5040273;28;20049;-70
2021/10/11 05:59:25;;;;;;;31.58;17.40;;;;;;;10.89;100.00;101155.16;5049959;28;20033;-73
2021/10/11 06:01:52;;;;;;;33.28;17.98;;;;;;;10.79;100.00;101153.88;5036008;28;20052;-72
2021/10/11 06:04:19;;;;;;;29.13;16.67;;;;;;;10.83;100.00;101150.09;5028481;28;20037;-69
2021/10/11 06:06:46;;;;;;;31.45;16.52;;;;;;;10.82;100.00;101153.72;5032514;28;20058;-70
2021/10/11 06:09:15;;;;;;;32.10;15.07;;;;;;;10.80;100.00;101159.16;5041641;28;20033;-71
2021/10/11 06:11:43;;;;;;;35.80;16.60;;;;;;;10.79;100.00;101138.69;5037035;28;20430;-73
2021/10/11 06:14:10;;;;;;;29.38;14.48;;;;;;;10.88;100.00;101149.91;5053869;28;20052;-68
2021/10/11 06:16:36;;;;;;;29.77;14.98;;;;;;;10.80;100.00;101147.59;5035710;28;20049;-66
2021/10/11 06:19:03;;;;;;;33.45;15.18;;;;;;;10.74;100.00;101151.44;5035007;28;20095;-66
2021/10/11 06:21:33;;;;;;;34.22;15.15;;;;;;;10.71;100.00;101143.53;5046459;28;20045;-66
2021/10/11 06:24:02;;;;;;;28.27;14.73;;;;;;;10.66;100.00;101151.75;5035287;28;20111;-67
2021/10/11 06:26:29;;;;;;;29.38;14.38;;;;;;;10.60;100.00;101146.69;5046999;28;20401;-66
2021/10/11 06:28:56;;;;;;;30.25;14.25;;;;;;;10.57;100.00;101145.03;5040963;28;20422;-65
2021/10/11 06:31:23;;;;;;;32.85;14.27;;;;;;;10.53;100.00;101142.56;5032612;28;20050;-65
2021/10/11 06:33:50;;;;;;;31.25;14.05;;;;;;;10.52;100.00;101146.19;5039318;28;20508;-69
2021/10/11 06:36:17;;;;;;;30.08;13.52;;;;;;;10.51;100.00;101144.47;5030743;28;20050;-70
2021/10/11 06:38:44;;;;;;;26.23;12.80;;;;;;;10.48;100.00;101150.78;5032134;28;20095;-64
2021/10/11 06:41:11;;;;;;;24.63;13.05;;;;;;;10.46;100.00;101149.97;5032066;28;20053;-68
2021/10/11 06:43:38;;;;;;;26.23;12.70;;;;;;;10.39;100.00;101143.16;5045825;28;20045;-68
2021/10/11 06:46:05;;;;;;;27.88;13.23;;;;;;;10.34;100.00;101146.03;5033283;28;20041;-64
2021/10/11 06:48:32;;;;;;;24.17;12.27;;;;;;;10.34;100.00;101151.38;5033324;28;20052;-66
2021/10/11 06:50:59;;;;;;;25.63;11.52;;;;;;;10.32;100.00;101156.78;5042922;28;20045;-70
2021/10/11 06:53:25;;;;;;;30.70;13.02;;;;;;;10.32;100.00;101170.13;5041589;28;20098;-66
2021/10/11 06:55:53;;;;;;;27.10;12.50;;;;;;;10.32;100.00;101166.59;5049643;28;20040;-64
2021/10/11 06:58:20;;;;;;;24.85;12.38;;;;;;;10.31;100.00;101168.38;5046838;28;20032;-64
2021/10/11 07:00:47;;;;;;;27.08;12.27;;;;;;;10.32;100.00;101171.91;5043181;28;20041;-68
2021/10/11 07:03:15;;;;;;;26.25;12.13;;;;;;;10.40;100.00;101172.44;5049720;28;20817;-64
2021/10/11 07:05:42;;;;;;;26.55;11.48;;;;;;;10.40;100.00;101172.44;5046730;28;20037;-66
2021/10/11 07:08:10;;;;;;;26.35;12.15;;;;;;;10.42;100.00;101170.59;5050045;28;20041;-67
2021/10/11 07:10:38;;;;;;;27.52;12.30;;;;;;;10.44;100.00;101175.88;5029699;28;20446;-67
2021/10/11 07:13:05;;;;;;;28.55;11.13;;;;;;;10.50;100.00;101177.44;5043184;28;20044;-64
2021/10/11 07:15:33;;;;;;;27.98;9.23;;;;;;;10.61;100.00;101169.78;5043105;28;20040;-65
2021/10/11 07:18:01;;;;;;;19.45;9.75;;;;;;;10.54;100.00;101174.53;5040476;28;20304;-65
2021/10/11 07:20:27;;;;;;;26.00;10.52;;;;;;;10.60;100.00;101189.41;5046131;28;20041;-65
2021/10/11 07:22:54;;;;;;;29.42;9.60;;;;;;;10.59;100.00;101204.56;5046187;28;20052;-66
2021/10/11 07:25:21;;;;;;;24.88;9.43;;;;;;;10.61;100.00;101200.97;5049218;28;20036;-65
2021/10/11 07:27:49;;;;;;;24.67;9.00;;;;;;;10.61;100.00;101196.47;5048973;28;20045;-67
2021/10/11 07:30:16;;;;;;;25.52;8.95;;;;;;;10.60;100.00;101192.09;5049720;28;20037;-64
2021/10/11 07:32:43;;;;;;;23.42;8.60;;;;;;;10.56;100.00;101185.13;5042459;28;20064;-66
2021/10/11 07:35:10;;;;;;;20.98;8.70;;;;;;;10.64;100.00;101195.47;5035264;28;20053;-65
2021/10/11 07:37:52;;;;;;;21.13;8.73;;;;;;;10.67;100.00;101190.88;5041728;28;20049;-67
2021/10/11 07:40:39;;;;;;;19.85;8.18;;;;;;;10.69;100.00;101190.81;5032150;28;20033;-65
2021/10/11 07:43:06;;;;;;;18.13;6.57;;;;;;;10.70;100.00;101195.22;5044380;28;20037;-67
2021/10/11 07:45:33;;;;;;;19.70;6.57;;;;;;;10.68;100.00;101195.28;5044355;28;20041;-64
2021/10/11 07:48:00;;;;;;;24.65;7.53;;;;;;;10.70;100.00;101195.22;5041203;28;20045;-66
2021/10/11 07:50:27;;;;;;;17.90;6.10;;;;;;;10.67;100.00;101204.22;5036956;28;20033;-65
2021/10/11 07:52:53;;;;;;;16.88;5.75;;;;;;;10.72;100.00;101204.88;5032616;28;20037;-67
2021/10/11 07:55:21;;;;;;;20.85;6.07;;;;;;;10.73;100.00;101211.97;5029842;28;20041;-66
2021/10/11 07:57:48;;;;;;;20.75;5.10;;;;;;;10.77;100.00;101219.81;5033440;28;20045;-66
2021/10/11 08:00:20;;;;;;;19.80;5.80;;;;;;;10.80;100.00;101225.03;5045014;28;20041;-66
2021/10/11 08:02:47;;;;;;;19.70;5.40;;;;;;;10.85;100.00;101229.22;5038351;28;20041;-65
2021/10/11 08:05:15;;;;;;;18.30;5.68;;;;;;;10.90;100.00;101231.69;5049097;28;20068;-66
2021/10/11 08:07:42;;;;;;;23.42;5.82;;;;;;;11.01;100.00;101236.56;5047316;28;20061;-65
2021/10/11 08:10:10;;;;;;;17.40;5.88;;;;;;;11.12;100.00;101233.41;5045654;28;20053;-65
2021/10/11 08:12:38;;;;;;;16.63;5.82;;;;;;;11.12;100.00;101234.25;5043791;28;20045;-66
2021/10/11 08:15:07;;;;;;;20.10;5.95;;;;;;;11.17;100.00;101239.38;5032167;28;20049;-68
2021/10/11 08:17:34;;;;;;;19.52;6.60;;;;;;;11.26;100.00;101241.63;5041827;28;20049;-67
2021/10/11 08:20:02;;;;;;;20.20;5.60;;;;;;;11.30;100.00;101246.81;5035337;28;20042;-66
2021/10/11 08:22:29;;;;;;;18.77;5.70;;;;;;;11.24;100.00;101243.50;5050898;28;20508;-67
2021/10/11 08:24:56;;;;;;;19.52;5.82;;;;;;;11.25;100.00;101229.22;5045115;28;20038;-65
2021/10/11 08:27:23;;;;;;;23.38;5.20;;;;;;;11.32;100.00;101236.94;5039861;28;20574;-66
2021/10/11 08:29:53;;;;;;;16.02;4.55;;;;;;;11.31;100.00;101249.44;5046735;28;20430;-66
2021/10/11 08:32:24;;;;;;;15.32;4.78;;;;;;;11.35;100.00;101247.47;5041428;28;20037;-68
2021/10/11 08:34:52;;;;;;;13.05;5.95;;;;;;;11.35;100.00;101252.84;5039613;28;20052;-66
2021/10/11 08:37:21;;;;;;;27.90;5.00;;;;;;;11.44;100.00;101247.03;5033658;28;20048;-65
2021/10/11 08:39:50;;;;;;;11.85;3.88;;;;;;;11.48;100.00;101251.31;5036548;28;20038;-67
2021/10/11 08:42:17;;;;;;;14.00;4.20;;;;;;;11.51;100.00;101245.81;5045499;28;20041;-66
2021/10/11 08:44:45;;;;;;;16.73;4.75;;;;;;;11.55;100.00;101247.41;5033003;28;20099;-69
2021/10/11 08:47:14;;;;;;;15.82;3.80;;;;;;;11.62;100.00;101239.09;5042244;28;20049;-68
2021/10/11 08:49:46;;;;;;;15.73;4.45;;;;;;;11.62;100.00;101239.97;5033074;28;20029;-68
2021/10/11 08:52:15;;;;;;;16.30;4.43;;;;;;;11.56;100.00;101245.63;5039834;28;20132;-68
2021/10/11 08:54:42;;;;;;;17.20;4.35;;;;;;;11.65;99.52;101250.50;5042300;28;20431;-69
2021/10/11 08:57:26;;;;;;;13.30;4.53;;;;;;;11.66;99.91;101244.22;5036202;28;20046;-66
2021/10/11 09:00:05;;;;;;;12.68;4.05;;;;;;;11.82;100.00;101264.84;5037108;28;20049;-67
2021/10/11 09:02:32;;;;;;;15.60;4.25;;;;;;;11.97;99.34;101263.25;5031068;28;20438;-66
2021/10/11 09:04:59;;;;;;;20.85;4.60;;;;;;;12.08;99.59;101252.91;5041695;28;20358;-67
2021/10/11 09:07:29;;;;;;;19.13;3.95;;;;;;;12.20;96.10;101264.81;5048945;28;20335;-70
2021/10/11 09:09:59;;;;;;;15.67;3.23;;;;;;;12.34;90.73;101261.47;5032250;28;20048;-66
2021/10/11 09:12:31;;;;;;;13.52;3.42;;;;;;;12.55;91.58;101253.25;5038014;28;20457;-68
2021/10/11 09:15:09;;;;;;;12.02;2.97;;;;;;;12.82;87.54;101249.19;5031913;28;20046;-69
2021/10/11 09:17:42;;;;;;;21.55;3.53;;;;;;;13.01;88.78;101249.06;5034418;28;20042;-67
2021/10/11 09:20:09;;;;;;;17.90;3.70;;;;;;;13.06;88.18;101236.31;5030357;28;20042;-68
2021/10/11 09:22:38;;;;;;;12.95;3.30;;;;;;;13.09;89.12;101251.34;5034510;28;20047;-69
2021/10/11 09:25:06;;;;;;;15.82;3.72;;;;;;;12.94;87.07;101242.31;5035927;28;20096;-69
2021/10/11 09:27:54;;;;;;;15.20;3.40;;;;;;;12.77;87.55;101238.75;5047425;28;20067;-70
2021/10/11 09:30:26;;;;;;;12.70;3.78;;;;;;;12.64;89.00;101243.84;5063141;28;20063;-71
2021/10/11 09:33:13;;;;;;;18.20;4.18;;;;;;;12.62;89.81;101249.31;5037385;28;20039;-70
2021/10/11 09:35:41;;;;;;;13.70;2.80;;;;;;;12.66;91.20;101250.03;5043548;28;20328;-69
2021/10/11 09:38:25;;;;;;;15.98;4.43;;;;;;;12.67;90.70;101258.91;5039893;28;20048;-70
2021/10/11 09:40:58;;;;;;;18.23;3.28;;;;;;;12.72;90.29;101259.53;5044206;28;20645;-70
2021/10/11 09:43:26;;;;;;;;;;;;;;;12.74;89.51;101258.50;5032363;28;20045;-71
2021/10/11 09:45:53;;;;;;;14.60;2.92;;;;;;;12.79;89.04;101255.59;5032475;28;19931;-69
2021/10/11 09:48:22;;;;;;;14.85;4.60;;;;;;;12.77;88.04;101261.03;5039795;28;20400;-69
2021/10/11 09:50:49;;;;;;;12.95;2.72;;;;;;;12.75;90.12;101260.25;5028510;28;20389;-68
2021/10/11 09:53:17;;;;;;;20.60;3.70;;;;;;;12.84;88.54;101258.91;5040440;28;20065;-66
2021/10/11 09:55:45;;;;;;;15.13;3.17;;;;;;;12.87;87.18;101263.22;5034733;28;20079;-67
2021/10/11 09:58:13;;;;;;;15.45;4.47;;;;;;;12.95;89.32;101254.75;5040310;28;20438;-68
2021/10/11 10:00:42;;;;;;;14.20;2.72;;;;;;;13.11;90.69;101255.69;5030441;28;20360;-69
2021/10/11 10:03:13;;;;;;;14.93;3.05;;;;;;;13.23;91.20;101259.50;5038912;28;20056;-70
2021/10/11 10:05:47;;;;;;;10.88;2.85;;;;;;;13.26;87.62;101256.66;5036835;28;20072;-70
2021/10/11 10:08:21;;;;;;;11.40;2.45;;;;;;;13.33;87.85;101250.97;5035195;28;20054;-70
2021/10/11 10:10:57;;;;;;;11.13;2.40;;;;;;;13.37;85.21;101244.47;5035672;28;20036;-70
2021/10/11 10:13:27;;;;;;;13.57;2.22;;;;;;;13.33;85.15;101237.56;5046576;28;20050;-69
2021/10/11 10:16:05;;;;;;;13.50;2.63;;;;;;;13.25;84.80;101248.72;5033475;28;20071;-68
2021/10/11 10:18:38;;;;;;;8.55;2.45;;;;;;;13.20;86.86;101242.72;5035137;28;20273;-69
2021/10/11 10:21:06;;;;;;;12.50;2.38;;;;;;;13.14;85.49;101236.75;5044154;28;20059;-70
2021/10/11 10:23:38;;;;;;;13.73;3.00;;;;;;;13.20;85.91;101246.28;5047000;28;20489;-68
2021/10/11 10:26:08;;;;;;;17.10;2.53;;;;;;;13.21;85.07;101248.00;5049006;28;20059;-68
2021/10/11 10:28:53;;;;;;;11.82;2.78;;;;;;;13.27;85.01;101239.63;5031746;28;20053;-70
2021/10/11 10:31:27;;;;;;;17.67;2.45;;;;;;;13.28;83.60;101235.13;5042167;28;20037;-70
2021/10/11 10:33:55;;;;;;;18.27;2.50;;;;;;;13.34;83.89;101241.97;5042841;28;20037;-72
2021/10/11 10:36:25;;;;;;;13.85;3.65;;;;;;;13.37;85.09;101234.63;5047822;28;20042;-69
2021/10/11 10:39:05;;;;;;;18.15;2.90;;;;;;;13.49;85.40;101232.22;5037913;28;20594;-68
2021/10/11 10:41:32;;;;;;;15.38;2.67;;;;;;;13.44;84.00;101225.28;5035091;28;20044;-68
2021/10/11 10:44:10;;;;;;;10.82;3.10;;;;;;;13.40;81.04;101230.91;5025455;28;20393;-66
2021/10/11 10:46:51;;;;;;;16.67;2.55;;;;;;;13.48;81.27;101236.75;5024831;28;20335;-66
2021/10/11 10:49:46;;;;;;;11.77;2.97;;;;;;;13.47;84.19;101244.84;5026933;28;20080;-67
2021/10/11 10:52:16;;;;;;;12.43;2.60;;;;;;;13.42;84.55;101235.22;5034846;28;20049;-65
2021/10/11 10:54:49;;;;;;;;;;;;;;;13.43;85.95;101239.66;5035959;28;20055;-67
2021/10/11 10:57:20;;;;;;;11.82;2.10;;;;;;;13.46;81.61;101238.66;5032774;28;19965;-67
2021/10/11 10:59:56;;;;;;;6.80;1.88;;;;;;;13.41;84.65;101240.69;5035240;28;20045;-66
2021/10/11 11:02:29;;;;;;;21.38;3.08;;;;;;;13.48;84.81;101246.59;5035252;28;20426;-66
2021/10/11 11:05:00;;;;;;;9.18;2.05;;;;;;;13.50;84.08;101247.38;5035867;28;20053;-68
2021/10/11 11:07:31;;;;;;;13.60;2.40;;;;;;;13.45;84.36;101239.53;5035953;28;20061;-67
2021/10/11 11:09:59;;;;;;;16.52;2.55;;;;;;;13.56;83.81;101247.00;5035745;28;20364;-67
2021/10/11 11:12:34;;;;;;;10.43;2.50;;;;;;;13.60;83.54;101253.94;5036310;28;20088;-67